Time;durP1;ratioP1;P1;durP2;ratioP2;P2;SDS_P1;SDS_P2;PMS_P1;PMS_P2;Temp;Humidity;BMP_temperature;BMP_pressure;BME280_temperature;BME280_humidity;BME280_pressure;Samples;Min_cycle;Max_cycle;Signal;HPM_P1;HPM_P2
2023/01/21 00:01:19;;;;;;;144.55;55.90;;;-1.40;99.90;;;-144.05;78.31;125687.94;5052298;28;20387;-81
2023/01/21 00:03:45;;;;;;;72.70;31.95;;;-1.40;99.90;;;-144.05;78.08;125687.94;5052449;28;20477;-82
2023/01/21 00:06:13;;;;;;;82.35;34.90;;;-1.40;99.90;;;-144.05;78.03;125687.94;5052601;28;20035;-83
2023/01/21 00:08:40;;;;;;;188.85;61.67;;;-1.50;99.90;;;-144.05;77.92;125687.94;5052472;28;20056;-83
2023/01/21 00:11:10;;;;;;;119.90;47.03;;;-1.50;99.90;;;-144.05;78.11;125687.94;5052486;28;20048;-83
2023/01/21 00:13:37;;;;;;;73.80;33.47;;;-1.60;99.90;;;-144.05;77.89;125687.94;5051586;28;20121;-86
2023/01/21 00:16:04;;;;;;;74.28;31.38;;;-1.60;99.90;;;-144.05;77.71;125687.94;5051290;28;20116;-82
2023/01/21 00:18:30;;;;;;;184.77;60.55;;;-1.60;99.90;;;-144.05;78.00;125687.94;5050964;28;20116;-85
2023/01/21 00:20:56;;;;;;;180.98;64.55;;;-1.70;99.90;;;-144.05;77.62;125687.94;5051153;28;20140;-87
2023/01/21 00:23:22;;;;;;;140.93;52.83;;;-1.70;99.90;;;-144.05;78.12;125687.94;5051982;28;20068;-83
2023/01/21 00:25:48;;;;;;;111.32;42.30;;;-1.80;99.90;;;-144.05;78.56;125687.94;5050646;28;20032;-82
2023/01/21 00:28:14;;;;;;;115.30;43.30;;;-1.80;99.90;;;-144.05;78.31;125687.94;5050614;28;20063;-82
2023/01/21 00:30:40;;;;;;;63.88;29.80;;;-1.80;99.90;;;-144.05;78.56;125687.94;5050548;28;20025;-85
2023/01/21 00:33:07;;;;;;;100.93;39.05;;;-1.80;99.90;;;-144.05;78.49;125687.94;5050508;28;20025;-82
2023/01/21 00:35:33;;;;;;;88.75;34.92;;;-1.90;99.90;;;-144.05;78.57;125687.94;5050486;28;20033;-83
2023/01/21 00:37:59;;;;;;;350.30;99.07;;;-1.90;99.90;;;-144.05;78.58;125687.94;5050443;28;20527;-83
2023/01/21 00:40:25;;;;;;;178.95;57.75;;;-1.90;99.90;;;-144.05;78.68;125687.94;5050342;28;20051;-83
2023/01/21 00:42:54;;;;;;;194.15;60.75;;;-1.90;99.90;;;-144.05;78.70;125687.94;5050036;28;20086;-83
2023/01/21 00:45:27;;;;;;;107.00;43.30;;;-1.90;99.90;;;-144.05;78.53;125687.94;5050724;28;20508;-81
2023/01/21 00:48:00;;;;;;;200.93;67.95;;;-1.80;99.90;;;-144.05;78.67;125687.94;5050671;28;20033;-82
2023/01/21 00:50:26;;;;;;;161.82;60.10;;;-1.80;99.90;;;-144.05;78.52;125687.94;5050321;28;20373;-82
2023/01/21 00:52:52;;;;;;;87.68;36.58;;;-1.70;99.90;;;-144.05;78.34;125687.94;5050206;28;20036;-84
2023/01/21 00:55:18;;;;;;;102.85;44.15;;;-1.90;99.90;;;-144.05;78.26;125687.94;5050378;28;20086;-83
2023/01/21 00:57:44;;;;;;;64.10;30.33;;;-1.90;99.90;;;-144.05;78.15;125687.94;5049672;28;20392;-81
2023/01/21 01:00:15;;;;;;;75.38;33.97;;;-2.00;99.90;;;-144.05;78.21;125687.94;5050036;28;20056;-80
2023/01/21 01:02:43;;;;;;;69.80;33.20;;;-2.00;99.90;;;-144.05;78.72;125687.94;5051739;28;20025;-83
2023/01/21 01:05:10;;;;;;;60.42;27.45;;;-2.00;99.90;;;-144.05;78.70;125687.94;5050462;28;20481;-81
2023/01/21 01:07:46;;;;;;;69.03;29.15;;;-2.10;99.90;;;-144.05;79.10;125687.94;5050196;28;20079;-83
2023/01/21 01:10:23;;;;;;;66.82;30.65;;;-2.00;99.90;;;-144.05;78.78;125687.94;5050994;28;20029;-82
2023/01/21 01:12:53;;;;;;;72.25;30.75;;;-2.00;99.90;;;-144.05;78.74;125687.94;5051467;28;20131;-83
2023/01/21 01:15:24;;;;;;;65.93;30.25;;;-1.90;99.90;;;-144.05;78.83;125687.94;5055383;28;20436;-82
2023/01/21 01:18:25;;;;;;;66.10;29.52;;;-1.90;99.90;;;-144.05;78.74;125687.94;5070826;28;20087;-81
2023/01/21 01:21:09;;;;;;;67.50;32.15;;;-2.00;99.90;;;-144.05;78.80;125687.94;5059447;28;20041;-81
2023/01/21 01:23:47;;;;;;;74.18;30.65;;;-2.00;99.90;;;-144.05;79.30;125687.94;5049408;28;20041;-83
2023/01/21 01:26:40;;;;;;;65.85;29.85;;;-2.00;99.90;;;-144.05;79.45;125687.94;5050306;28;20580;-83
2023/01/21 01:30:17;;;;;;;;;;;;;;;;;;;;;
2023/01/21 01:33:18;;;;;;;61.65;26.17;;;-2.10;99.90;;;-144.05;78.78;125687.94;5040654;28;20045;-81
2023/01/21 01:35:48;;;;;;;59.30;28.30;;;-2.00;99.90;;;-144.05;78.37;125687.94;5050572;28;20025;-82
2023/01/21 01:38:21;;;;;;;61.00;27.15;;;-2.10;99.90;;;-144.05;78.52;125687.94;5051581;28;20417;-83
2023/01/21 01:40:51;;;;;;;67.22;30.27;;;-2.10;99.90;;;-144.05;78.67;125687.94;5050096;28;20036;-83
2023/01/21 01:43:23;;;;;;;55.95;27.70;;;-2.20;99.90;;;-144.05;78.66;125687.94;5050188;28;20017;-82
2023/01/21 01:45:53;;;;;;;58.97;26.85;;;-2.10;99.90;;;-144.05;78.80;125687.94;5050047;28;20473;-82
2023/01/21 01:48:40;;;;;;;65.50;28.50;;;-2.10;99.90;;;-144.05;78.94;125687.94;5050314;28;20083;-84
2023/01/21 01:51:08;;;;;;;61.83;28.75;;;-2.20;99.90;;;-144.05;78.80;125687.94;5049644;28;20048;-83
2023/01/21 01:53:39;;;;;;;66.38;30.45;;;-2.20;99.90;;;-144.05;78.65;125687.94;5050162;28;20036;-85
2023/01/21 01:56:08;;;;;;;59.58;27.73;;;-2.20;99.90;;;-144.05;78.62;125687.94;5049881;28;20025;-82
2023/01/21 01:58:38;;;;;;;61.97;27.85;;;-2.20;99.90;;;-144.05;78.71;125687.94;5049778;28;20381;-82
2023/01/21 02:01:04;;;;;;;56.08;28.05;;;-2.30;99.90;;;-144.05;78.55;125687.94;5050632;28;20025;-82
2023/01/21 02:03:43;;;;;;;63.55;29.00;;;-2.40;99.90;;;-144.05;78.65;125687.94;5053701;28;20025;-81
2023/01/21 02:06:09;;;;;;;66.43;29.30;;;-2.50;99.90;;;-144.05;79.84;125687.94;5054493;28;20029;-84
2023/01/21 02:08:38;;;;;;;75.25;31.70;;;-2.50;99.90;;;-144.05;79.97;125687.94;5053430;28;20158;-82
2023/01/21 02:11:53;;;;;;;62.40;28.33;;;-2.30;99.90;;;-144.05;79.54;125687.94;5053774;28;20033;-82
2023/01/21 02:15:56;;;;;;;67.35;29.15;;;-2.30;99.90;;;-144.05;80.05;125687.94;5034485;28;20057;-81
2023/01/21 02:19:34;;;;;;;65.07;28.27;;;-2.40;99.90;;;-144.05;79.79;125687.94;5032408;28;20037;-82
2023/01/21 02:23:20;;;;;;;;;;;;;;;;;;;;;
2023/01/21 02:26:12;;;;;;;63.45;28.90;;;-2.30;99.90;;;-144.05;80.02;125687.94;5035593;28;20047;-82
2023/01/21 02:29:52;;;;;;;;;;;;;;;;;;;;;
2023/01/21 02:33:52;;;;;;;;;;;;;;;;;;;;;
2023/01/21 02:36:46;;;;;;;64.18;30.40;;;-2.10;99.90;;;-144.05;79.67;125687.94;5036387;28;20369;-82
2023/01/21 02:39:46;;;;;;;63.35;28.25;;;-2.00;99.90;;;-144.05;79.62;125687.94;5035608;28;20029;-82
2023/01/21 02:42:29;;;;;;;62.53;29.55;;;-2.10;99.90;;;-144.05;79.34;125687.94;5033596;28;20064;-82
2023/01/21 02:45:18;;;;;;;66.40;30.42;;;-2.10;99.90;;;-144.05;79.77;125687.94;5032864;28;20033;-83
2023/01/21 02:48:13;;;;;;;71.13;30.17;;;-2.20;99.90;;;-144.05;80.05;125687.94;5032948;28;20087;-82
2023/01/21 02:50:49;;;;;;;63.72;30.65;;;-2.10;99.90;;;-144.05;79.51;125687.94;5033625;28;20022;-82
2023/01/21 02:53:27;;;;;;;69.35;30.38;;;-2.10;99.90;;;-144.05;79.25;125687.94;5033635;28;20029;-81
2023/01/21 02:56:01;;;;;;;63.33;27.92;;;-2.10;99.90;;;-144.05;78.62;125687.94;5033583;28;20570;-82
2023/01/21 02:58:37;;;;;;;66.00;28.92;;;-2.10;99.90;;;-144.05;79.03;125687.94;5033079;28;20029;-81
2023/01/21 03:01:55;;;;;;;59.47;28.73;;;-2.20;99.90;;;-144.05;78.80;125687.94;5033226;28;20025;-80
2023/01/21 03:05:18;;;;;;;63.63;28.20;;;-2.10;99.90;;;-144.05;78.95;125687.94;5033654;28;20194;-84
2023/01/21 03:08:18;;;;;;;66.05;31.40;;;-2.10;99.90;;;-144.05;78.95;125687.94;5033427;28;20113;-82
2023/01/21 03:11:20;;;;;;;62.22;29.35;;;-2.10;99.90;;;-144.05;78.88;125687.94;5028250;28;20037;-81
2023/01/21 03:18:17;;;;;;;64.18;29.80;;;-2.10;99.90;;;-144.05;78.80;125687.94;5052462;28;20056;-78
2023/01/21 03:21:54;;;;;;;58.55;27.95;;;-2.10;99.90;;;-144.05;78.95;125687.94;5048462;28;20038;-82
2023/01/21 03:24:33;;;;;;;69.85;29.40;;;-2.10;99.90;;;-144.05;78.45;125687.94;4999988;28;20064;-82
2023/01/21 03:27:13;;;;;;;60.55;29.23;;;-2.10;99.90;;;-144.05;78.40;125687.94;5033331;28;20083;-83
2023/01/21 03:35:20;;;;;;;60.42;27.38;;;-2.00;99.90;;;-144.05;78.45;125687.94;5032091;28;20037;-83
2023/01/21 03:38:28;;;;;;;64.95;28.90;;;-2.10;99.90;;;-144.05;78.16;125687.94;5030853;28;20557;-82
2023/01/21 03:41:35;;;;;;;61.92;27.67;;;-2.10;99.90;;;-144.05;78.01;125687.94;5031956;28;20045;-82
2023/01/21 03:44:12;;;;;;;64.72;29.73;;;-2.20;99.90;;;-144.05;78.25;125687.94;5032652;28;20041;-83
2023/01/21 03:47:00;;;;;;;70.32;30.10;;;-2.20;99.90;;;-144.05;78.15;125687.94;5032332;28;20161;-84
2023/01/21 03:49:43;;;;;;;58.80;27.75;;;-2.20;99.90;;;-144.05;78.09;125687.94;5032899;28;20533;-85
2023/01/21 04:02:28;;;;;;;;;;;;;;;;;;;;;
2023/01/21 04:10:08;;;;;;;62.85;27.90;;;-2.70;99.90;;;-144.05;78.15;125687.94;4914654;28;20034;-80
2023/01/21 04:20:45;;;;;;;155.73;61.30;;;-3.10;99.90;;;-144.05;78.62;125687.94;4956102;22;20538;-78
2023/01/21 04:23:11;;;;;;;140.82;51.88;;;-3.10;99.90;;;-144.05;78.55;125687.94;5052944;28;20058;-78
2023/01/21 04:25:37;;;;;;;294.88;102.70;;;-3.10;99.90;;;-144.05;78.45;125687.94;5034042;28;20029;-79
2023/01/21 04:28:03;;;;;;;353.45;117.65;;;-3.20;99.90;;;-144.05;78.62;125687.94;5052490;28;20033;-77
2023/01/21 04:30:29;;;;;;;237.75;80.75;;;-3.20;99.90;;;-144.05;78.68;125687.94;5034688;28;20140;-78
2023/01/21 04:32:55;;;;;;;305.77;104.40;;;-3.20;99.90;;;-144.05;78.67;125687.94;5034347;28;20460;-78
2023/01/21 04:35:21;;;;;;;152.02;58.55;;;-3.20;99.90;;;-144.05;78.54;125687.94;5052583;28;20442;-79
2023/01/21 04:37:47;;;;;;;198.80;86.15;;;-3.20;99.90;;;-144.05;78.87;125687.94;5052120;28;20387;-77
2023/01/21 04:40:13;;;;;;;102.30;45.33;;;-3.20;99.90;;;-144.05;78.97;125687.94;5052104;28;20029;-78
2023/01/21 04:42:41;;;;;;;95.15;44.25;;;-3.20;99.90;;;-144.05;79.04;125687.94;5052047;28;20064;-77
2023/01/21 04:45:08;;;;;;;151.68;66.32;;;-3.20;99.90;;;-144.05;79.38;125687.94;5052024;28;20029;-77
2023/01/21 04:47:34;;;;;;;85.70;40.70;;;-3.10;99.90;;;-144.05;79.28;125687.94;5052496;28;20087;-78
2023/01/21 04:50:01;;;;;;;140.57;65.18;;;-3.00;99.90;;;-144.05;79.29;125687.94;5033623;28;20510;-77
2023/01/21 04:52:27;;;;;;;111.25;54.25;;;-3.00;99.90;;;-144.05;78.86;125687.94;5051254;28;20043;-79
2023/01/21 04:54:52;;;;;;;104.35;46.22;;;-3.00;99.90;;;-144.05;79.45;125687.94;5051824;28;20033;-77
2023/01/21 04:57:18;;;;;;;92.43;41.55;;;-3.00;99.90;;;-144.05;79.14;125687.94;5051768;28;20463;-76
2023/01/21 04:59:44;;;;;;;79.95;38.53;;;-3.10;99.90;;;-144.05;79.09;125687.94;5052018;28;20068;-77
2023/01/21 05:02:10;;;;;;;68.93;32.40;;;-3.10;99.90;;;-144.05;78.88;125687.94;5052087;28;20029;-78
2023/01/21 05:04:36;;;;;;;88.10;40.13;;;-3.20;99.90;;;-144.05;79.28;125687.94;5051565;28;20056;-77
2023/01/21 05:07:02;;;;;;;79.38;36.53;;;-3.20;99.90;;;-144.05;78.96;125687.94;5051914;28;20108;-76
2023/01/21 05:09:28;;;;;;;69.70;32.75;;;-3.30;99.90;;;-144.05;79.44;125687.94;5051106;28;20113;-76
2023/01/21 05:11:53;;;;;;;71.57;32.00;;;-3.30;99.90;;;-144.05;79.59;125687.94;5035682;28;20071;-78
2023/01/21 05:14:19;;;;;;;84.43;35.53;;;-3.30;99.90;;;-144.05;80.06;125687.94;5054635;28;20102;-78
2023/01/21 05:16:45;;;;;;;81.30;34.42;;;-3.30;99.90;;;-144.05;80.03;125687.94;5052513;28;20457;-79
2023/01/21 05:19:11;;;;;;;75.65;33.72;;;-3.20;99.90;;;-144.05;79.79;125687.94;5051895;28;20021;-79
2023/01/21 05:21:37;;;;;;;66.03;32.22;;;-3.10;99.90;;;-144.05;79.89;125687.94;5051732;28;20036;-77
2023/01/21 05:24:03;;;;;;;75.13;32.22;;;-3.10;99.90;;;-144.05;79.74;125687.94;5051768;28;20029;-80
2023/01/21 05:26:29;;;;;;;73.60;31.75;;;-3.10;99.90;;;-144.05;79.65;125687.94;5033922;28;20274;-78
2023/01/21 05:28:55;;;;;;;70.55;31.40;;;-3.10;99.90;;;-144.05;79.84;125687.94;5033694;28;20032;-76
2023/01/21 05:31:21;;;;;;;75.90;32.30;;;-3.20;99.90;;;-144.05;79.81;125687.94;5052282;28;20449;-78
2023/01/21 05:33:46;;;;;;;70.88;32.28;;;-3.20;99.90;;;-144.05;79.76;125687.94;5051899;28;20495;-78
2023/01/21 05:36:12;;;;;;;67.85;30.77;;;-3.20;99.90;;;-144.05;79.75;125687.94;5034293;28;20059;-78
2023/01/21 05:38:39;;;;;;;64.57;29.10;;;-3.20;99.90;;;-144.05;79.58;125687.94;5037423;28;20029;-79
2023/01/21 05:41:04;;;;;;;64.38;29.13;;;-3.30;99.90;;;-144.05;79.62;125687.94;5037689;28;20024;-77
2023/01/21 05:43:30;;;;;;;69.05;29.52;;;-3.40;99.90;;;-144.05;79.79;125687.94;5055696;28;20478;-77
2023/01/21 05:45:56;;;;;;;66.63;30.88;;;-3.40;99.90;;;-144.05;79.62;125687.94;5055505;28;20400;-80
2023/01/21 05:48:23;;;;;;;68.32;31.77;;;-3.50;99.90;;;-144.05;79.89;125687.94;5055268;28;20116;-79
2023/01/21 05:50:49;;;;;;;68.55;30.08;;;-3.60;99.90;;;-144.05;79.88;125687.94;5055179;28;20598;-76
2023/01/21 05:53:16;;;;;;;77.43;30.17;;;-3.60;99.90;;;-144.05;80.28;125687.94;5055014;28;20488;-77
2023/01/21 05:55:42;;;;;;;85.47;30.70;;;-3.50;99.90;;;-144.05;80.02;125687.94;5054785;28;20025;-78
2023/01/21 05:58:08;;;;;;;71.45;33.85;;;-3.50;99.90;;;-144.05;80.37;125687.94;5054940;28;20091;-78
2023/01/21 06:00:34;;;;;;;73.18;31.45;;;-3.40;99.90;;;-144.05;80.17;125687.94;5054931;28;20405;-78
2023/01/21 06:03:02;;;;;;;68.07;30.52;;;-3.40;99.90;;;-144.05;80.08;125687.94;5054818;28;20056;-77
2023/01/21 06:05:29;;;;;;;71.57;30.67;;;-3.40;99.90;;;-144.05;79.99;125687.94;5037281;28;20040;-79
2023/01/21 06:07:55;;;;;;;70.80;31.98;;;-3.40;99.90;;;-144.05;79.83;125687.94;5055307;28;20029;-78
2023/01/21 06:10:21;;;;;;;68.53;31.23;;;-3.40;99.90;;;-144.05;79.69;125687.94;5036853;28;20036;-77
2023/01/21 06:12:51;;;;;;;72.43;33.30;;;-3.50;99.90;;;-144.05;79.66;125687.94;5036891;28;20488;-77
2023/01/21 06:15:18;;;;;;;66.90;29.80;;;-3.50;99.90;;;-144.05;79.71;125687.94;5055416;28;20050;-78
2023/01/21 06:17:44;;;;;;;65.90;31.38;;;-3.60;99.90;;;-144.05;79.75;125687.94;5036832;28;20032;-77
2023/01/21 06:20:11;;;;;;;62.97;28.83;;;-3.70;99.90;;;-144.05;79.72;125687.94;5054483;28;20032;-79
2023/01/21 06:22:37;;;;;;;67.55;29.52;;;-3.70;99.90;;;-144.05;80.00;125687.94;5036598;28;20033;-76
2023/01/21 06:25:03;;;;;;;57.75;27.80;;;-3.70;99.90;;;-144.05;79.79;125687.94;5036535;28;20092;-78
2023/01/21 06:27:29;;;;;;;63.90;27.98;;;-3.70;99.90;;;-144.05;79.62;125687.94;5054418;28;20040;-77
2023/01/21 06:29:54;;;;;;;62.45;27.98;;;-3.70;99.90;;;-144.05;79.99;125687.94;5036469;28;20033;-78
2023/01/21 06:32:20;;;;;;;62.05;28.65;;;-3.70;99.90;;;-144.05;80.12;125687.94;5054775;28;20032;-81
2023/01/21 06:34:46;;;;;;;65.50;28.77;;;-3.60;99.90;;;-144.05;80.35;125687.94;5036840;28;20096;-79
2023/01/21 06:37:12;;;;;;;64.35;29.65;;;-3.50;99.90;;;-144.05;80.13;125687.94;5036909;28;20079;-80
2023/01/21 06:39:38;;;;;;;67.05;31.20;;;-3.40;99.90;;;-144.05;80.29;125687.94;5036638;28;20063;-79
2023/01/21 06:42:04;;;;;;;72.35;31.50;;;-3.30;99.90;;;-144.05;80.20;125687.94;5036963;28;20075;-79
2023/01/21 06:44:29;;;;;;;77.70;33.30;;;-3.20;99.90;;;-144.05;80.23;125687.94;5036601;28;20029;-78
2023/01/21 06:46:55;;;;;;;72.32;31.10;;;-3.10;99.90;;;-144.05;80.07;125687.94;5036437;28;20137;-78
2023/01/21 06:49:21;;;;;;;63.15;29.50;;;-3.00;99.90;;;-144.05;80.25;125687.94;5035126;28;20025;-81
2023/01/21 06:51:47;;;;;;;63.70;29.35;;;-2.90;99.90;;;-144.05;80.20;125687.94;5036321;28;20017;-79
2023/01/21 06:54:13;;;;;;;68.60;30.85;;;-2.90;99.90;;;-144.05;80.11;125687.94;5054503;28;20082;-77
2023/01/21 06:56:42;;;;;;;69.30;31.05;;;-2.80;99.90;;;-144.05;80.27;125687.94;5054446;28;20028;-79
2023/01/21 06:59:08;;;;;;;71.65;31.40;;;-2.80;99.90;;;-144.05;80.47;125687.94;5054458;28;20025;-78
2023/01/21 07:01:34;;;;;;;71.40;33.03;;;-2.70;99.90;;;-144.05;80.17;125687.94;5036652;28;20476;-79
2023/01/21 07:04:00;;;;;;;73.72;32.75;;;-2.60;99.90;;;-144.05;80.27;125687.94;5036686;28;20071;-77
2023/01/21 07:06:26;;;;;;;81.90;34.13;;;-2.50;99.90;;;-144.05;80.29;125687.94;5054693;28;20053;-80
2023/01/21 07:08:52;;;;;;;80.05;33.83;;;-2.40;99.90;;;-144.05;80.02;125687.94;5040691;28;20510;-81
2023/01/21 07:11:18;;;;;;;74.32;32.08;;;-2.30;99.90;;;-144.05;79.94;125687.94;5059233;28;20029;-83
2023/01/21 07:13:43;;;;;;;69.95;32.10;;;-2.30;99.90;;;-144.05;79.55;125687.94;5038901;28;20476;-81
2023/01/21 07:16:09;;;;;;;70.30;33.10;;;-2.20;99.90;;;-144.05;79.36;125687.94;5038377;28;20150;-80
2023/01/21 07:18:35;;;;;;;76.25;33.58;;;-2.20;99.90;;;-144.05;79.57;125687.94;5037743;28;20017;-81
2023/01/21 07:21:01;;;;;;;75.07;31.27;;;-2.10;99.90;;;-144.05;79.44;125687.94;5038434;28;20021;-79
2023/01/21 07:23:28;;;;;;;75.95;32.70;;;-2.10;99.90;;;-144.05;79.18;125687.94;5037590;28;20357;-80
2023/01/21 07:25:55;;;;;;;80.25;34.65;;;-2.00;99.90;;;-144.05;79.22;125687.94;5037920;28;20112;-80
2023/01/21 07:28:20;;;;;;;91.60;36.78;;;-2.10;99.90;;;-144.05;79.09;125687.94;5037271;28;20040;-80
2023/01/21 07:30:46;;;;;;;90.15;39.72;;;-2.00;99.90;;;-144.05;78.94;125687.94;5054897;28;20025;-80
2023/01/21 07:33:12;;;;;;;119.40;52.80;;;-2.00;99.90;;;-144.05;79.25;125687.94;5054719;28;20052;-79
2023/01/21 07:35:39;;;;;;;87.43;38.78;;;-1.90;99.90;;;-144.05;78.88;125687.94;5055082;28;20075;-79
2023/01/21 07:38:05;;;;;;;91.80;39.13;;;-1.90;99.90;;;-144.05;79.04;125687.94;5036368;28;20025;-81
2023/01/21 07:40:31;;;;;;;82.07;36.10;;;-1.90;99.90;;;-144.05;78.97;125687.94;5036749;28;20052;-80
2023/01/21 07:42:57;;;;;;;83.55;35.22;;;-1.80;99.90;;;-144.05;78.70;125687.94;5036271;28;20566;-81
2023/01/21 07:45:23;;;;;;;90.60;38.90;;;-1.80;99.90;;;-144.05;78.30;125687.94;5036256;28;20056;-80
2023/01/21 07:47:49;;;;;;;118.95;48.78;;;-1.80;99.90;;;-144.05;78.00;125687.94;5054241;28;20083;-80
2023/01/21 07:50:15;;;;;;;160.05;67.57;;;-1.70;99.90;;;-144.05;78.11;125687.94;5053780;28;20445;-79
2023/01/21 07:52:41;;;;;;;115.60;50.97;;;-1.70;99.90;;;-144.05;78.24;125687.94;5054108;28;20049;-80
2023/01/21 07:55:09;;;;;;;73.85;33.72;;;-1.70;99.90;;;-144.05;77.88;125687.94;5036199;28;20056;-81
2023/01/21 07:57:35;;;;;;;76.55;34.55;;;-1.70;99.90;;;-144.05;77.83;125687.94;5053809;28;20419;-80
2023/01/21 08:00:01;;;;;;;75.63;34.42;;;-1.70;99.90;;;-144.05;77.54;125687.94;5053472;28;20071;-80
2023/01/21 08:02:27;;;;;;;62.45;30.90;;;-1.60;99.90;;;-144.05;77.17;125687.94;5053263;28;20064;-80
2023/01/21 08:04:52;;;;;;;61.90;30.20;;;-1.60;99.90;;;-144.05;77.09;125687.94;5053642;28;20044;-78
2023/01/21 08:07:18;;;;;;;76.95;34.95;;;-1.60;99.90;;;-144.05;77.04;125687.94;5053508;28;20071;-79
2023/01/21 08:09:44;;;;;;;61.20;31.50;;;-1.60;99.90;;;-144.05;76.95;125687.94;5035309;28;20119;-79
2023/01/21 08:12:10;;;;;;;65.88;29.95;;;-1.50;99.90;;;-144.05;76.62;125687.94;5053262;28;20036;-79
2023/01/21 08:14:37;;;;;;;68.43;31.52;;;-1.50;99.90;;;-144.05;76.62;125687.94;5052926;28;20040;-79
2023/01/21 08:17:03;;;;;;;60.92;29.48;;;-1.40;99.90;;;-144.05;76.20;125687.94;5053443;28;20025;-79
2023/01/21 08:19:29;;;;;;;64.28;31.48;;;-1.40;99.90;;;-144.05;76.34;125687.94;5034865;28;20439;-78
2023/01/21 08:21:55;;;;;;;66.22;30.42;;;-1.40;99.90;;;-144.05;76.39;125687.94;5052843;28;20033;-78
2023/01/21 08:24:21;;;;;;;74.43;34.45;;;-1.30;99.90;;;-144.05;76.02;125687.94;5052884;28;20038;-79
2023/01/21 08:26:47;;;;;;;76.40;34.33;;;-1.30;99.90;;;-144.05;75.88;125687.94;5053560;28;20083;-78
2023/01/21 08:29:14;;;;;;;73.43;34.65;;;-1.30;99.90;;;-144.05;76.09;125687.94;5052776;28;20040;-79
2023/01/21 08:31:40;;;;;;;73.85;32.45;;;-1.20;99.90;;;-144.05;76.03;125687.94;5035169;28;20037;-81
2023/01/21 08:34:05;;;;;;;64.15;31.30;;;-1.20;99.90;;;-144.05;76.08;125687.94;5053526;28;20519;-82
2023/01/21 08:36:31;;;;;;;67.40;31.70;;;-1.10;99.90;;;-144.05;75.72;125687.94;5062883;28;20017;-83
2023/01/21 08:38:57;;;;;;;59.13;28.00;;;-1.10;99.90;;;-144.05;75.79;125687.94;5057208;28;20017;-79
2023/01/21 08:41:24;;;;;;;64.38;28.92;;;-1.00;99.90;;;-144.05;75.65;125687.94;5074996;28;20013;-83
2023/01/21 08:43:51;;;;;;;58.45;28.67;;;-1.00;99.90;;;-144.05;75.83;125687.94;5044657;28;20091;-83
2023/01/21 08:46:16;;;;;;;61.10;28.88;;;-1.00;99.90;;;-144.05;75.62;125687.94;5036822;28;20056;-84
2023/01/21 08:48:42;;;;;;;62.88;28.30;;;-0.90;99.90;;;-144.05;75.44;125687.94;5054355;28;20037;-82
2023/01/21 08:51:08;;;;;;;63.25;28.67;;;-0.90;99.90;;;-144.05;75.13;125687.94;5035325;28;20067;-82
2023/01/21 08:53:34;;;;;;;61.15;27.50;;;-0.80;99.90;;;-144.05;74.83;125687.94;5053838;28;20519;-83
2023/01/21 08:56:03;;;;;;;61.38;28.70;;;-0.80;99.90;;;-144.05;75.08;125687.94;5053536;28;20053;-83
2023/01/21 08:58:31;;;;;;;57.08;27.02;;;-0.80;99.90;;;-144.05;74.90;125687.94;5036147;28;20446;-78
2023/01/21 09:01:04;;;;;;;60.40;26.50;;;-0.70;99.90;;;-144.05;75.06;125687.94;5035078;28;20082;-77
2023/01/21 09:03:30;;;;;;;56.20;26.77;;;-0.70;99.90;;;-144.05;74.79;125687.94;5054283;28;20485;-82
2023/01/21 09:06:01;;;;;;;60.03;26.42;;;-0.70;99.90;;;-144.05;74.56;125687.94;5043109;28;20063;-80
2023/01/21 09:08:27;;;;;;;54.97;25.65;;;-0.60;99.90;;;-144.05;74.27;125687.94;5058844;28;20029;-80
2023/01/21 09:11:01;;;;;;;55.60;26.42;;;-0.60;99.90;;;-144.05;74.55;125687.94;5036881;28;20036;-76
2023/01/21 09:13:36;;;;;;;54.10;25.20;;;-0.50;99.90;;;-144.05;74.22;125687.94;5037223;28;20111;-87
2023/01/21 09:16:09;;;;;;;50.83;26.07;;;-0.50;99.90;;;-144.05;74.25;125687.94;5055194;28;20033;-82
2023/01/21 09:18:36;;;;;;;51.17;24.73;;;-0.40;99.90;;;-144.05;74.09;125687.94;5036176;28;20029;-83
2023/01/21 09:21:05;;;;;;;56.90;26.23;;;-0.40;99.90;;;-144.05;74.04;125687.94;5036055;28;20033;-80
2023/01/21 09:23:33;;;;;;;53.63;24.52;;;-0.30;99.90;;;-144.05;73.91;125687.94;5053993;28;20025;-80
2023/01/21 09:26:21;;;;;;;57.17;26.20;;;-0.30;99.90;;;-144.05;73.81;125687.94;5036452;28;20037;-81
2023/01/21 09:28:58;;;;;;;49.80;24.17;;;-0.30;99.90;;;-144.05;73.94;125687.94;5035317;28;20033;-80
2023/01/21 09:31:28;;;;;;;50.97;24.35;;;-0.20;99.90;;;-144.05;73.75;125687.94;5036048;28;20033;-78
2023/01/21 09:34:03;;;;;;;51.65;24.83;;;-0.20;99.90;;;-144.05;73.77;125687.94;5053316;28;20060;-81
2023/01/21 09:36:34;;;;;;;39.72;17.85;;;-0.10;99.90;;;-144.05;73.52;125687.94;5052407;28;20055;-78
2023/01/21 09:39:01;;;;;;;55.70;26.38;;;-0.10;99.90;;;-144.05;73.40;125687.94;5034552;28;20049;-79
2023/01/21 09:41:50;;;;;;;107.10;40.80;;;-0.10;99.90;;;-144.05;73.23;125687.94;5034282;28;20025;-79
2023/01/21 09:44:32;;;;;;;105.47;41.15;;;-0.10;99.90;;;-144.05;72.95;125687.94;5052547;28;20420;-77
2023/01/21 09:47:30;;;;;;;61.97;28.40;;;0.00;99.90;;;-144.05;72.39;125687.94;5052643;28;20035;-79
2023/01/21 09:50:17;;;;;;;57.13;26.25;;;0.10;99.90;;;-144.05;72.60;125687.94;5052210;28;20025;-80
2023/01/21 09:52:57;;;;;;;55.67;26.55;;;0.20;99.90;;;-144.05;72.39;125687.94;5034153;28;20079;-82
2023/01/21 09:55:34;;;;;;;93.97;41.70;;;0.20;99.90;;;-144.05;72.69;125687.94;5033889;28;20519;-80
2023/01/21 09:58:43;;;;;;;106.43;51.03;;;0.30;99.90;;;-144.05;72.22;125687.94;5052165;28;20061;-83
2023/01/21 10:01:23;;;;;;;72.18;34.65;;;0.30;99.90;;;-144.05;72.21;125687.94;5051758;28;20055;-83
2023/01/21 10:04:30;;;;;;;49.53;25.48;;;0.30;99.90;;;-144.05;72.25;125687.94;5034145;28;20033;-83
2023/01/21 10:07:24;;;;;;;56.92;29.08;;;0.30;99.90;;;-144.05;71.82;125687.94;5034469;28;20218;-83
2023/01/21 10:10:15;;;;;;;58.15;27.67;;;0.30;99.90;;;-144.05;72.01;125687.94;5051574;28;20047;-82
2023/01/21 10:13:22;;;;;;;78.55;36.22;;;0.40;99.90;;;-144.05;72.33;125687.94;5051784;28;20116;-82
2023/01/21 10:16:28;;;;;;;71.68;31.33;;;0.40;99.90;;;-144.05;72.20;125687.94;4995702;28;20045;-82
2023/01/21 10:19:00;;;;;;;54.63;26.37;;;0.40;99.90;;;-144.05;71.81;125687.94;5034127;28;20048;-82
2023/01/21 10:21:59;;;;;;;52.83;26.23;;;0.50;99.90;;;-144.05;71.71;125687.94;5033775;28;20041;-83
2023/01/21 10:24:45;;;;;;;61.25;27.50;;;0.50;99.90;;;-144.05;71.80;125687.94;5054552;28;20047;-82
2023/01/21 10:27:20;;;;;;;68.68;29.17;;;0.50;99.90;;;-144.05;71.58;125687.94;5037559;28;20049;-83
2023/01/21 10:29:55;;;;;;;62.92;29.15;;;0.50;99.90;;;-144.05;71.74;125687.94;5054510;28;20039;-82
2023/01/21 10:32:26;;;;;;;95.07;41.78;;;0.60;99.90;;;-144.05;71.72;125687.94;5037032;28;20029;-81
2023/01/21 10:34:56;;;;;;;57.10;25.70;;;0.70;99.90;;;-144.05;71.30;125687.94;5075277;22;20063;-80
2023/01/21 10:38:08;;;;;;;118.28;53.05;;;0.80;99.90;;;-144.05;71.12;125687.94;4993483;28;20038;-81
2023/01/21 10:41:00;;;;;;;55.80;26.70;;;0.80;99.90;;;-144.05;70.95;125687.94;4977748;28;20050;-81
2023/01/21 10:43:51;;;;;;;51.28;24.63;;;0.90;99.90;;;-144.05;71.21;125687.94;4995114;28;20462;-83
2023/01/21 10:46:50;;;;;;;69.93;31.52;;;1.00;99.90;;;-144.05;71.15;125687.94;4974422;28;20081;-78
2023/01/21 10:50:29;;;;;;;64.60;26.90;;;1.00;99.90;;;-144.05;70.83;125687.94;4976910;28;20122;-81
2023/01/21 10:53:22;;;;;;;54.67;26.27;;;1.10;99.90;;;-144.05;70.41;125687.94;4976434;28;20126;-80
2023/01/21 10:56:02;;;;;;;67.10;28.52;;;1.10;99.90;;;-144.05;70.17;125687.94;4977636;28;20030;-78
2023/01/21 10:59:04;;;;;;;60.85;27.75;;;1.20;99.90;;;-144.05;69.55;125687.94;4976899;28;20061;-79
2023/01/21 11:01:42;;;;;;;59.78;26.40;;;1.20;99.90;;;-144.05;69.60;125687.94;4975347;28;20039;-78